sensor_id;sensor_type;location;lat;lon;timestamp;P1;durP1;ratioP1;P2;durP2;ratioP2
10303;SDS011;5197;48.152;8.590;2023-04-01T00:01:26;2.23;;;0.50;;
10303;SDS011;5197;48.152;8.590;2023-04-01T00:03:53;1.60;;;0.40;;
10303;SDS011;5197;48.152;8.590;2023-04-01T00:06:21;0.70;;;0.40;;
10303;SDS011;5197;48.152;8.590;2023-04-01T00:08:48;0.30;;;0.30;;
10303;SDS011;5197;48.152;8.590;2023-04-01T00:11:15;1.57;;;0.40;;
10303;SDS011;5197;48.152;8.590;2023-04-01T00:13:42;0.43;;;0.20;;
10303;SDS011;5197;48.152;8.590;2023-04-01T00:16:09;0.60;;;0.40;;
10303;SDS011;5197;48.152;8.590;2023-04-01T00:18:47;1.30;;;0.20;;
10303;SDS011;5197;48.152;8.590;2023-04-01T00:21:15;0.30;;;0.27;;
10303;SDS011;5197;48.152;8.590;2023-04-01T00:23:42;0.40;;;0.40;;
10303;SDS011;5197;48.152;8.590;2023-04-01T00:26:09;0.57;;;0.10;;
10303;SDS011;5197;48.152;8.590;2023-04-01T00:28:38;0.40;;;0.40;;
10303;SDS011;5197;48.152;8.590;2023-04-01T00:31:06;0.47;;;0.20;;
10303;SDS011;5197;48.152;8.590;2023-04-01T00:33:34;0.63;;;0.37;;
10303;SDS011;5197;48.152;8.590;2023-04-01T00:36:06;1.20;;;0.20;;
10303;SDS011;5197;48.152;8.590;2023-04-01T00:38:34;0.97;;;0.30;;
10303;SDS011;5197;48.152;8.590;2023-04-01T00:41:02;0.40;;;0.20;;
10303;SDS011;5197;48.152;8.590;2023-04-01T00:43:30;0.13;;;0.10;;
10303;SDS011;5197;48.152;8.590;2023-04-01T00:45:57;0.93;;;0.30;;
10303;SDS011;5197;48.152;8.590;2023-04-01T00:48:29;0.67;;;0.20;;
10303;SDS011;5197;48.152;8.590;2023-04-01T00:51:01;0.10;;;0.10;;
10303;SDS011;5197;48.152;8.590;2023-04-01T00:53:38;0.83;;;0.20;;
10303;SDS011;5197;48.152;8.590;2023-04-01T00:56:10;0.10;;;0.10;;
10303;SDS011;5197;48.152;8.590;2023-04-01T00:58:41;0.20;;;0.20;;
10303;SDS011;5197;48.152;8.590;2023-04-01T01:01:13;1.33;;;0.30;;
10303;SDS011;5197;48.152;8.590;2023-04-01T01:03:41;0.43;;;0.40;;
10303;SDS011;5197;48.152;8.590;2023-04-01T01:11:22;0.93;;;0.30;;
10303;SDS011;5197;48.152;8.590;2023-04-01T01:14:06;0.20;;;0.20;;
10303;SDS011;5197;48.152;8.590;2023-04-01T01:16:44;0.17;;;0.17;;
10303;SDS011;5197;48.152;8.590;2023-04-01T01:25:00;0.17;;;0.10;;
10303;SDS011;5197;48.152;8.590;2023-04-01T01:27:37;0.60;;;0.20;;
10303;SDS011;5197;48.152;8.590;2023-04-01T01:30:20;0.37;;;0.37;;
10303;SDS011;5197;48.152;8.590;2023-04-01T01:33:03;0.40;;;0.20;;
10303;SDS011;5197;48.152;8.590;2023-04-01T01:35:38;0.20;;;0.20;;
10303;SDS011;5197;48.152;8.590;2023-04-01T01:38:16;1.13;;;0.40;;
10303;SDS011;5197;48.152;8.590;2023-04-01T01:40:46;0.50;;;0.23;;
10303;SDS011;5197;48.152;8.590;2023-04-01T01:43:18;0.47;;;0.27;;
10303;SDS011;5197;48.152;8.590;2023-04-01T01:45:58;2.33;;;0.33;;
10303;SDS011;5197;48.152;8.590;2023-04-01T01:48:28;1.43;;;0.30;;
10303;SDS011;5197;48.152;8.590;2023-04-01T01:50:56;0.90;;;0.47;;
10303;SDS011;5197;48.152;8.590;2023-04-01T01:53:24;2.13;;;0.40;;
10303;SDS011;5197;48.152;8.590;2023-04-01T01:55:51;0.70;;;0.47;;
10303;SDS011;5197;48.152;8.590;2023-04-01T01:58:22;1.03;;;0.40;;
10303;SDS011;5197;48.152;8.590;2023-04-01T02:01:29;0.23;;;0.20;;
10303;SDS011;5197;48.152;8.590;2023-04-01T02:03:59;0.97;;;0.27;;
10303;SDS011;5197;48.152;8.590;2023-04-01T02:06:28;1.80;;;0.40;;
10303;SDS011;5197;48.152;8.590;2023-04-01T02:09:05;0.83;;;0.50;;
10303;SDS011;5197;48.152;8.590;2023-04-01T02:11:41;1.80;;;0.40;;
10303;SDS011;5197;48.152;8.590;2023-04-01T02:19:26;1.50;;;0.63;;
10303;SDS011;5197;48.152;8.590;2023-04-01T02:21:58;0.60;;;0.40;;
10303;SDS011;5197;48.152;8.590;2023-04-01T02:24:28;0.50;;;0.37;;
10303;SDS011;5197;48.152;8.590;2023-04-01T02:26:57;2.40;;;0.40;;
10303;SDS011;5197;48.152;8.590;2023-04-01T02:29:25;2.80;;;0.63;;
10303;SDS011;5197;48.152;8.590;2023-04-01T02:31:53;2.57;;;0.80;;
10303;SDS011;5197;48.152;8.590;2023-04-01T02:34:21;2.53;;;0.60;;
10303;SDS011;5197;48.152;8.590;2023-04-01T02:36:50;3.10;;;0.70;;
10303;SDS011;5197;48.152;8.590;2023-04-01T02:39:18;0.80;;;0.50;;
10303;SDS011;5197;48.152;8.590;2023-04-01T02:41:45;3.10;;;0.73;;
10303;SDS011;5197;48.152;8.590;2023-04-01T02:44:13;3.47;;;0.67;;
10303;SDS011;5197;48.152;8.590;2023-04-01T02:46:41;1.90;;;0.80;;
10303;SDS011;5197;48.152;8.590;2023-04-01T02:49:08;3.47;;;0.90;;
10303;SDS011;5197;48.152;8.590;2023-04-01T02:51:35;2.97;;;1.30;;
10303;SDS011;5197;48.152;8.590;2023-04-01T02:54:02;4.07;;;1.37;;
10303;SDS011;5197;48.152;8.590;2023-04-01T02:56:29;2.57;;;1.00;;
10303;SDS011;5197;48.152;8.590;2023-04-01T02:58:55;3.60;;;0.90;;
10303;SDS011;5197;48.152;8.590;2023-04-01T03:01:22;5.40;;;0.83;;
10303;SDS011;5197;48.152;8.590;2023-04-01T03:03:49;2.93;;;0.80;;
10303;SDS011;5197;48.152;8.590;2023-04-01T03:06:16;1.10;;;0.90;;
10303;SDS011;5197;48.152;8.590;2023-04-01T03:08:43;2.43;;;0.93;;
10303;SDS011;5197;48.152;8.590;2023-04-01T03:11:11;2.53;;;0.80;;
10303;SDS011;5197;48.152;8.590;2023-04-01T03:13:38;3.53;;;1.17;;
10303;SDS011;5197;48.152;8.590;2023-04-01T03:16:05;4.80;;;1.10;;
10303;SDS011;5197;48.152;8.590;2023-04-01T03:18:32;1.13;;;0.77;;
10303;SDS011;5197;48.152;8.590;2023-04-01T03:21:18;2.00;;;0.93;;
10303;SDS011;5197;48.152;8.590;2023-04-01T03:23:47;3.97;;;1.17;;
10303;SDS011;5197;48.152;8.590;2023-04-01T03:26:14;2.87;;;1.00;;
10303;SDS011;5197;48.152;8.590;2023-04-01T03:28:41;0.97;;;0.87;;
10303;SDS011;5197;48.152;8.590;2023-04-01T03:31:08;2.60;;;0.73;;
10303;SDS011;5197;48.152;8.590;2023-04-01T03:33:35;5.00;;;1.20;;
10303;SDS011;5197;48.152;8.590;2023-04-01T03:36:03;2.07;;;0.90;;
10303;SDS011;5197;48.152;8.590;2023-04-01T03:38:33;5.20;;;0.90;;
10303;SDS011;5197;48.152;8.590;2023-04-01T03:41:00;5.70;;;1.30;;
10303;SDS011;5197;48.152;8.590;2023-04-01T03:43:28;2.73;;;0.90;;
10303;SDS011;5197;48.152;8.590;2023-04-01T03:45:55;1.13;;;0.50;;
10303;SDS011;5197;48.152;8.590;2023-04-01T03:48:24;0.87;;;0.67;;
10303;SDS011;5197;48.152;8.590;2023-04-01T03:50:52;1.60;;;0.63;;
10303;SDS011;5197;48.152;8.590;2023-04-01T03:53:18;1.53;;;0.50;;
10303;SDS011;5197;48.152;8.590;2023-04-01T03:55:46;1.60;;;0.80;;
10303;SDS011;5197;48.152;8.590;2023-04-01T03:58:13;1.20;;;0.40;;
10303;SDS011;5197;48.152;8.590;2023-04-01T04:00:39;3.27;;;0.90;;
10303;SDS011;5197;48.152;8.590;2023-04-01T04:03:07;0.63;;;0.40;;
10303;SDS011;5197;48.152;8.590;2023-04-01T04:05:34;0.20;;;0.20;;
10303;SDS011;5197;48.152;8.590;2023-04-01T04:08:01;0.27;;;0.13;;
10303;SDS011;5197;48.152;8.590;2023-04-01T04:10:28;0.20;;;0.10;;
10303;SDS011;5197;48.152;8.590;2023-04-01T04:12:55;0.47;;;0.30;;
10303;SDS011;5197;48.152;8.590;2023-04-01T04:15:22;1.27;;;0.40;;
10303;SDS011;5197;48.152;8.590;2023-04-01T04:17:49;0.57;;;0.37;;
10303;SDS011;5197;48.152;8.590;2023-04-01T04:20:16;0.20;;;0.20;;
10303;SDS011;5197;48.152;8.590;2023-04-01T04:22:43;0.70;;;0.30;;
10303;SDS011;5197;48.152;8.590;2023-04-01T04:25:10;0.73;;;0.30;;
10303;SDS011;5197;48.152;8.590;2023-04-01T04:27:36;0.70;;;0.17;;
10303;SDS011;5197;48.152;8.590;2023-04-01T04:30:04;0.30;;;0.30;;
10303;SDS011;5197;48.152;8.590;2023-04-01T04:32:32;0.20;;;0.20;;
10303;SDS011;5197;48.152;8.590;2023-04-01T04:34:59;0.87;;;0.30;;
10303;SDS011;5197;48.152;8.590;2023-04-01T04:37:26;0.43;;;0.30;;
10303;SDS011;5197;48.152;8.590;2023-04-01T04:39:53;0.30;;;0.30;;
10303;SDS011;5197;48.152;8.590;2023-04-01T04:42:20;0.80;;;0.57;;
10303;SDS011;5197;48.152;8.590;2023-04-01T04:44:47;0.60;;;0.37;;
10303;SDS011;5197;48.152;8.590;2023-04-01T04:47:14;1.17;;;0.67;;
10303;SDS011;5197;48.152;8.590;2023-04-01T04:49:41;0.53;;;0.40;;
10303;SDS011;5197;48.152;8.590;2023-04-01T04:52:08;1.13;;;0.77;;
10303;SDS011;5197;48.152;8.590;2023-04-01T04:54:35;1.27;;;0.40;;
10303;SDS011;5197;48.152;8.590;2023-04-01T04:57:02;0.80;;;0.47;;
10303;SDS011;5197;48.152;8.590;2023-04-01T04:59:29;3.03;;;0.63;;
10303;SDS011;5197;48.152;8.590;2023-04-01T05:01:57;1.40;;;0.60;;
10303;SDS011;5197;48.152;8.590;2023-04-01T05:04:23;1.10;;;0.47;;
10303;SDS011;5197;48.152;8.590;2023-04-01T05:06:50;2.13;;;0.40;;
10303;SDS011;5197;48.152;8.590;2023-04-01T05:09:18;1.17;;;0.40;;
10303;SDS011;5197;48.152;8.590;2023-04-01T05:11:44;2.20;;;0.50;;
10303;SDS011;5197;48.152;8.590;2023-04-01T05:14:13;0.90;;;0.30;;
10303;SDS011;5197;48.152;8.590;2023-04-01T05:16:43;0.60;;;0.43;;
10303;SDS011;5197;48.152;8.590;2023-04-01T05:19:10;2.23;;;0.40;;
10303;SDS011;5197;48.152;8.590;2023-04-01T05:21:37;1.67;;;0.63;;
10303;SDS011;5197;48.152;8.590;2023-04-01T05:24:06;0.83;;;0.40;;
10303;SDS011;5197;48.152;8.590;2023-04-01T05:26:35;1.13;;;1.00;;
10303;SDS011;5197;48.152;8.590;2023-04-01T05:29:03;2.47;;;1.00;;
10303;SDS011;5197;48.152;8.590;2023-04-01T05:31:30;2.03;;;0.60;;
10303;SDS011;5197;48.152;8.590;2023-04-01T05:33:58;3.77;;;0.70;;
10303;SDS011;5197;48.152;8.590;2023-04-01T05:36:24;2.20;;;0.80;;
10303;SDS011;5197;48.152;8.590;2023-04-01T05:38:54;1.70;;;0.60;;
10303;SDS011;5197;48.152;8.590;2023-04-01T05:41:21;2.13;;;0.43;;
10303;SDS011;5197;48.152;8.590;2023-04-01T05:43:48;0.90;;;0.50;;
10303;SDS011;5197;48.152;8.590;2023-04-01T05:46:15;0.47;;;0.37;;
10303;SDS011;5197;48.152;8.590;2023-04-01T05:48:42;1.43;;;0.40;;
10303;SDS011;5197;48.152;8.590;2023-04-01T05:51:12;0.87;;;0.40;;
10303;SDS011;5197;48.152;8.590;2023-04-01T05:53:41;2.20;;;0.37;;
10303;SDS011;5197;48.152;8.590;2023-04-01T05:56:08;0.83;;;0.30;;
10303;SDS011;5197;48.152;8.590;2023-04-01T05:58:36;0.47;;;0.40;;
10303;SDS011;5197;48.152;8.590;2023-04-01T06:01:04;0.80;;;0.80;;
10303;SDS011;5197;48.152;8.590;2023-04-01T06:03:41;3.07;;;0.90;;
10303;SDS011;5197;48.152;8.590;2023-04-01T06:06:16;1.80;;;0.90;;
10303;SDS011;5197;48.152;8.590;2023-04-01T06:08:58;1.13;;;0.63;;
10303;SDS011;5197;48.152;8.590;2023-04-01T06:11:55;1.47;;;0.67;;
10303;SDS011;5197;48.152;8.590;2023-04-01T06:20:08;1.23;;;0.80;;
10303;SDS011;5197;48.152;8.590;2023-04-01T06:25:36;2.73;;;0.97;;
10303;SDS011;5197;48.152;8.590;2023-04-01T06:31:10;0.63;;;0.40;;
10303;SDS011;5197;48.152;8.590;2023-04-01T06:36:43;1.33;;;0.73;;
10303;SDS011;5197;48.152;8.590;2023-04-01T06:44:57;0.73;;;0.50;;
10303;SDS011;5197;48.152;8.590;2023-04-01T06:51:30;1.67;;;0.50;;
10303;SDS011;5197;48.152;8.590;2023-04-01T06:56:29;2.20;;;0.77;;
10303;SDS011;5197;48.152;8.590;2023-04-01T06:59:01;0.40;;;0.40;;
10303;SDS011;5197;48.152;8.590;2023-04-01T07:01:47;0.40;;;0.40;;
10303;SDS011;5197;48.152;8.590;2023-04-01T07:04:19;0.73;;;0.67;;
10303;SDS011;5197;48.152;8.590;2023-04-01T07:06:58;0.73;;;0.60;;
10303;SDS011;5197;48.152;8.590;2023-04-01T07:09:31;2.30;;;0.50;;
10303;SDS011;5197;48.152;8.590;2023-04-01T07:12:06;0.60;;;0.60;;
10303;SDS011;5197;48.152;8.590;2023-04-01T07:14:51;0.50;;;0.50;;
10303;SDS011;5197;48.152;8.590;2023-04-01T07:17:20;2.77;;;0.60;;
10303;SDS011;5197;48.152;8.590;2023-04-01T07:20:03;1.63;;;0.40;;
10303;SDS011;5197;48.152;8.590;2023-04-01T07:22:33;0.60;;;0.40;;
10303;SDS011;5197;48.152;8.590;2023-04-01T07:25:38;0.53;;;0.53;;
10303;SDS011;5197;48.152;8.590;2023-04-01T07:28:04;1.57;;;0.47;;
10303;SDS011;5197;48.152;8.590;2023-04-01T07:31:01;0.30;;;0.30;;
10303;SDS011;5197;48.152;8.590;2023-04-01T07:42:45;0.63;;;0.63;;
10303;SDS011;5197;48.152;8.590;2023-04-01T07:47:37;4.20;;;3.90;;
10303;SDS011;5197;48.152;8.590;2023-04-01T07:50:22;4.10;;;3.70;;
10303;SDS011;5197;48.152;8.590;2023-04-01T07:55:55;2.87;;;2.67;;
10303;SDS011;5197;48.152;8.590;2023-04-01T07:58:31;1.70;;;1.50;;
10303;SDS011;5197;48.152;8.590;2023-04-01T08:12:19;1.37;;;1.27;;
10303;SDS011;5197;48.152;8.590;2023-04-01T08:20:30;0.40;;;0.40;;
10303;SDS011;5197;48.152;8.590;2023-04-01T08:25:37;1.50;;;1.40;;
10303;SDS011;5197;48.152;8.590;2023-04-01T08:28:13;1.90;;;1.67;;
10303;SDS011;5197;48.152;8.590;2023-04-01T08:31:12;1.37;;;1.27;;
10303;SDS011;5197;48.152;8.590;2023-04-01T08:33:45;0.40;;;0.40;;
10303;SDS011;5197;48.152;8.590;2023-04-01T08:36:17;4.93;;;3.93;;
10303;SDS011;5197;48.152;8.590;2023-04-01T08:38:59;1.47;;;1.37;;
10303;SDS011;5197;48.152;8.590;2023-04-01T08:44:18;1.10;;;1.00;;
10303;SDS011;5197;48.152;8.590;2023-04-01T08:46:55;1.00;;;0.40;;
10303;SDS011;5197;48.152;8.590;2023-04-01T08:58:00;0.87;;;0.50;;
10303;SDS011;5197;48.152;8.590;2023-04-01T09:00:53;1.00;;;1.00;;
10303;SDS011;5197;48.152;8.590;2023-04-01T09:06:03;4.80;;;4.40;;
10303;SDS011;5197;48.152;8.590;2023-04-01T09:09:11;5.03;;;3.67;;
10303;SDS011;5197;48.152;8.590;2023-04-01T09:12:13;2.27;;;1.80;;
10303;SDS011;5197;48.152;8.590;2023-04-01T09:15:05;3.50;;;2.43;;
10303;SDS011;5197;48.152;8.590;2023-04-01T09:18:02;3.23;;;2.53;;
10303;SDS011;5197;48.152;8.590;2023-04-01T09:51:23;1.50;;;1.50;;
10303;SDS011;5197;48.152;8.590;2023-04-01T09:54:07;0.50;;;0.50;;
10303;SDS011;5197;48.152;8.590;2023-04-01T09:59:18;1.40;;;1.30;;
10303;SDS011;5197;48.152;8.590;2023-04-01T10:02:37;2.60;;;1.27;;
10303;SDS011;5197;48.152;8.590;2023-04-01T10:13:25;0.60;;;0.60;;
10303;SDS011;5197;48.152;8.590;2023-04-01T10:19:18;0.60;;;0.60;;
10303;SDS011;5197;48.152;8.590;2023-04-01T10:28:05;1.20;;;0.97;;
10303;SDS011;5197;48.152;8.590;2023-04-01T10:38:58;1.60;;;1.50;;
10303;SDS011;5197;48.152;8.590;2023-04-01T10:49:55;2.10;;;1.73;;
10303;SDS011;5197;48.152;8.590;2023-04-01T11:24:33;0.80;;;0.50;;
10303;SDS011;5197;48.152;8.590;2023-04-01T11:27:14;1.23;;;1.10;;
10303;SDS011;5197;48.152;8.590;2023-04-01T11:35:48;0.57;;;0.57;;
10303;SDS011;5197;48.152;8.590;2023-04-01T11:38:31;0.33;;;0.33;;
10303;SDS011;5197;48.152;8.590;2023-04-01T11:44:21;0.57;;;0.57;;
10303;SDS011;5197;48.152;8.590;2023-04-01T11:46:59;0.50;;;0.50;;
10303;SDS011;5197;48.152;8.590;2023-04-01T11:49:55;2.07;;;0.80;;
10303;SDS011;5197;48.152;8.590;2023-04-01T11:55:14;1.40;;;0.80;;
10303;SDS011;5197;48.152;8.590;2023-04-01T12:08:48;0.70;;;0.37;;
10303;SDS011;5197;48.152;8.590;2023-04-01T12:11:26;0.40;;;0.40;;
10303;SDS011;5197;48.152;8.590;2023-04-01T12:14:36;0.13;;;0.13;;
10303;SDS011;5197;48.152;8.590;2023-04-01T12:17:16;0.60;;;0.60;;
10303;SDS011;5197;48.152;8.590;2023-04-01T12:23:02;0.30;;;0.30;;
10303;SDS011;5197;48.152;8.590;2023-04-01T12:28:50;1.63;;;0.50;;
10303;SDS011;5197;48.152;8.590;2023-04-01T12:37:21;0.60;;;0.60;;
10303;SDS011;5197;48.152;8.590;2023-04-01T12:46:15;0.40;;;0.20;;
10303;SDS011;5197;48.152;8.590;2023-04-01T12:49:05;1.07;;;0.97;;
10303;SDS011;5197;48.152;8.590;2023-04-01T13:09:24;0.80;;;0.80;;
10303;SDS011;5197;48.152;8.590;2023-04-01T13:20:56;0.20;;;0.20;;
10303;SDS011;5197;48.152;8.590;2023-04-01T13:26:25;0.80;;;0.33;;
10303;SDS011;5197;48.152;8.590;2023-04-01T13:29:14;0.57;;;0.57;;
10303;SDS011;5197;48.152;8.590;2023-04-01T13:31:51;1.23;;;0.40;;
10303;SDS011;5197;48.152;8.590;2023-04-01T13:37:44;1.80;;;0.60;;
10303;SDS011;5197;48.152;8.590;2023-04-01T13:40:30;1.20;;;0.70;;
10303;SDS011;5197;48.152;8.590;2023-04-01T13:43:36;0.70;;;0.63;;
10303;SDS011;5197;48.152;8.590;2023-04-01T13:52:34;6.73;;;4.63;;
10303;SDS011;5197;48.152;8.590;2023-04-01T14:01:00;0.47;;;0.47;;
10303;SDS011;5197;48.152;8.590;2023-04-01T14:06:38;0.60;;;0.60;;
10303;SDS011;5197;48.152;8.590;2023-04-01T14:17:51;0.60;;;0.60;;
10303;SDS011;5197;48.152;8.590;2023-04-01T14:20:41;0.90;;;0.67;;
10303;SDS011;5197;48.152;8.590;2023-04-01T14:26:13;1.57;;;1.47;;
10303;SDS011;5197;48.152;8.590;2023-04-01T14:31:51;0.90;;;0.47;;
10303;SDS011;5197;48.152;8.590;2023-04-01T14:34:32;0.90;;;0.90;;
10303;SDS011;5197;48.152;8.590;2023-04-01T14:46:23;1.80;;;1.60;;
10303;SDS011;5197;48.152;8.590;2023-04-01T14:49:42;5.13;;;3.93;;
10303;SDS011;5197;48.152;8.590;2023-04-01T14:52:04;1.77;;;1.00;;
10303;SDS011;5197;48.152;8.590;2023-04-01T14:54:38;4.23;;;2.67;;
10303;SDS011;5197;48.152;8.590;2023-04-01T15:00:07;2.40;;;1.33;;
10303;SDS011;5197;48.152;8.590;2023-04-01T15:05:32;0.80;;;0.80;;
10303;SDS011;5197;48.152;8.590;2023-04-01T15:08:15;1.03;;;1.00;;
10303;SDS011;5197;48.152;8.590;2023-04-01T15:13:52;0.97;;;0.70;;
10303;SDS011;5197;48.152;8.590;2023-04-01T15:22:55;1.37;;;0.90;;
10303;SDS011;5197;48.152;8.590;2023-04-01T15:25:39;2.10;;;1.90;;
10303;SDS011;5197;48.152;8.590;2023-04-01T15:31:28;0.70;;;0.70;;
10303;SDS011;5197;48.152;8.590;2023-04-01T15:34:20;0.50;;;0.50;;
10303;SDS011;5197;48.152;8.590;2023-04-01T15:37:08;3.57;;;2.10;;
10303;SDS011;5197;48.152;8.590;2023-04-01T15:39:57;1.13;;;0.60;;
10303;SDS011;5197;48.152;8.590;2023-04-01T15:45:57;0.73;;;0.73;;
10303;SDS011;5197;48.152;8.590;2023-04-01T15:48:51;0.73;;;0.70;;
10303;SDS011;5197;48.152;8.590;2023-04-01T15:57:28;0.80;;;0.80;;
10303;SDS011;5197;48.152;8.590;2023-04-01T16:00:19;0.57;;;0.50;;
10303;SDS011;5197;48.152;8.590;2023-04-01T16:05:58;0.70;;;0.50;;
10303;SDS011;5197;48.152;8.590;2023-04-01T16:17:14;0.60;;;0.60;;
10303;SDS011;5197;48.152;8.590;2023-04-01T16:20:24;1.07;;;0.93;;
10303;SDS011;5197;48.152;8.590;2023-04-01T16:26:03;1.17;;;0.90;;
10303;SDS011;5197;48.152;8.590;2023-04-01T16:29:06;2.13;;;1.80;;
10303;SDS011;5197;48.152;8.590;2023-04-01T16:31:32;2.13;;;1.80;;
10303;SDS011;5197;48.152;8.590;2023-04-01T16:37:00;1.40;;;1.03;;
10303;SDS011;5197;48.152;8.590;2023-04-01T16:47:49;4.80;;;2.87;;
10303;SDS011;5197;48.152;8.590;2023-04-01T16:58:36;0.90;;;0.70;;
10303;SDS011;5197;48.152;8.590;2023-04-01T17:01:18;0.50;;;0.50;;
10303;SDS011;5197;48.152;8.590;2023-04-01T17:03:51;2.07;;;0.83;;
10303;SDS011;5197;48.152;8.590;2023-04-01T17:11:49;0.47;;;0.47;;
10303;SDS011;5197;48.152;8.590;2023-04-01T17:23:14;1.40;;;1.30;;
10303;SDS011;5197;48.152;8.590;2023-04-01T17:28:50;0.63;;;0.60;;
10303;SDS011;5197;48.152;8.590;2023-04-01T17:34:23;1.23;;;1.13;;
10303;SDS011;5197;48.152;8.590;2023-04-01T17:39:51;0.83;;;0.83;;
10303;SDS011;5197;48.152;8.590;2023-04-01T17:53:45;3.27;;;0.67;;
10303;SDS011;5197;48.152;8.590;2023-04-01T17:56:30;0.80;;;0.80;;
10303;SDS011;5197;48.152;8.590;2023-04-01T17:59:24;0.93;;;0.80;;
10303;SDS011;5197;48.152;8.590;2023-04-01T18:05:03;2.97;;;1.90;;
10303;SDS011;5197;48.152;8.590;2023-04-01T18:18:59;2.63;;;2.03;;
10303;SDS011;5197;48.152;8.590;2023-04-01T18:21:45;1.37;;;1.30;;
10303;SDS011;5197;48.152;8.590;2023-04-01T18:24:33;2.17;;;1.20;;
10303;SDS011;5197;48.152;8.590;2023-04-01T18:27:16;0.90;;;0.90;;
10303;SDS011;5197;48.152;8.590;2023-04-01T18:29:55;0.83;;;0.80;;
10303;SDS011;5197;48.152;8.590;2023-04-01T18:32:43;1.00;;;0.90;;
10303;SDS011;5197;48.152;8.590;2023-04-01T18:38:06;2.30;;;1.23;;
10303;SDS011;5197;48.152;8.590;2023-04-01T18:40:42;1.90;;;1.70;;
10303;SDS011;5197;48.152;8.590;2023-04-01T18:51:10;3.47;;;3.07;;
10303;SDS011;5197;48.152;8.590;2023-04-01T18:53:39;3.20;;;2.90;;
10303;SDS011;5197;48.152;8.590;2023-04-01T18:56:14;5.73;;;4.07;;
10303;SDS011;5197;48.152;8.590;2023-04-01T19:01:50;4.43;;;3.43;;
10303;SDS011;5197;48.152;8.590;2023-04-01T19:04:20;2.20;;;2.00;;
10303;SDS011;5197;48.152;8.590;2023-04-01T19:06:58;2.30;;;2.10;;
10303;SDS011;5197;48.152;8.590;2023-04-01T19:09:47;2.77;;;2.13;;
10303;SDS011;5197;48.152;8.590;2023-04-01T19:12:20;1.70;;;1.60;;
10303;SDS011;5197;48.152;8.590;2023-04-01T19:15:02;1.90;;;1.40;;
10303;SDS011;5197;48.152;8.590;2023-04-01T19:18:02;1.33;;;1.23;;
10303;SDS011;5197;48.152;8.590;2023-04-01T19:26:29;2.70;;;2.50;;
10303;SDS011;5197;48.152;8.590;2023-04-01T19:32:17;4.83;;;3.40;;
10303;SDS011;5197;48.152;8.590;2023-04-01T19:48:30;1.73;;;1.60;;
10303;SDS011;5197;48.152;8.590;2023-04-01T19:51:39;2.63;;;2.17;;
10303;SDS011;5197;48.152;8.590;2023-04-01T20:05:27;8.20;;;4.80;;
10303;SDS011;5197;48.152;8.590;2023-04-01T20:08:10;6.47;;;3.67;;
10303;SDS011;5197;48.152;8.590;2023-04-01T20:13:43;9.63;;;3.90;;
10303;SDS011;5197;48.152;8.590;2023-04-01T20:19:45;5.37;;;3.00;;
10303;SDS011;5197;48.152;8.590;2023-04-01T20:22:28;4.67;;;3.40;;
10303;SDS011;5197;48.152;8.590;2023-04-01T20:25:12;6.63;;;3.70;;
10303;SDS011;5197;48.152;8.590;2023-04-01T20:27:45;7.13;;;4.10;;
10303;SDS011;5197;48.152;8.590;2023-04-01T20:41:16;3.90;;;2.63;;
10303;SDS011;5197;48.152;8.590;2023-04-01T20:52:24;1.80;;;1.70;;
10303;SDS011;5197;48.152;8.590;2023-04-01T20:55:18;1.40;;;1.30;;
10303;SDS011;5197;48.152;8.590;2023-04-01T20:58:01;5.60;;;3.47;;
10303;SDS011;5197;48.152;8.590;2023-04-01T21:00:48;4.00;;;3.17;;
10303;SDS011;5197;48.152;8.590;2023-04-01T21:03:25;6.13;;;3.90;;
10303;SDS011;5197;48.152;8.590;2023-04-01T21:11:56;3.83;;;3.13;;
10303;SDS011;5197;48.152;8.590;2023-04-01T21:20:36;3.13;;;2.87;;
10303;SDS011;5197;48.152;8.590;2023-04-01T21:23:24;2.10;;;1.90;;
10303;SDS011;5197;48.152;8.590;2023-04-01T21:31:17;1.27;;;1.27;;
10303;SDS011;5197;48.152;8.590;2023-04-01T21:33:49;4.13;;;2.13;;
10303;SDS011;5197;48.152;8.590;2023-04-01T21:36:57;5.00;;;4.70;;
10303;SDS011;5197;48.152;8.590;2023-04-01T21:44:53;1.23;;;1.07;;
10303;SDS011;5197;48.152;8.590;2023-04-01T21:47:42;0.90;;;0.90;;
10303;SDS011;5197;48.152;8.590;2023-04-01T21:59:46;0.97;;;0.97;;
10303;SDS011;5197;48.152;8.590;2023-04-01T22:05:06;1.67;;;0.80;;
10303;SDS011;5197;48.152;8.590;2023-04-01T22:07:51;2.30;;;0.70;;
10303;SDS011;5197;48.152;8.590;2023-04-01T22:10:45;1.60;;;1.00;;
10303;SDS011;5197;48.152;8.590;2023-04-01T22:18:50;0.90;;;0.80;;
10303;SDS011;5197;48.152;8.590;2023-04-01T22:26:48;0.80;;;0.80;;
10303;SDS011;5197;48.152;8.590;2023-04-01T22:32:28;0.67;;;0.67;;
10303;SDS011;5197;48.152;8.590;2023-04-01T22:35:20;2.00;;;0.90;;
10303;SDS011;5197;48.152;8.590;2023-04-01T22:43:56;1.30;;;1.20;;
10303;SDS011;5197;48.152;8.590;2023-04-01T22:46:39;1.30;;;1.20;;
10303;SDS011;5197;48.152;8.590;2023-04-01T22:52:03;1.57;;;1.20;;
10303;SDS011;5197;48.152;8.590;2023-04-01T23:00:16;2.17;;;1.13;;
10303;SDS011;5197;48.152;8.590;2023-04-01T23:06:01;1.83;;;1.73;;
10303;SDS011;5197;48.152;8.590;2023-04-01T23:11:10;1.23;;;1.10;;
10303;SDS011;5197;48.152;8.590;2023-04-01T23:13:53;1.43;;;1.27;;
10303;SDS011;5197;48.152;8.590;2023-04-01T23:16:32;3.10;;;1.37;;
10303;SDS011;5197;48.152;8.590;2023-04-01T23:19:14;1.30;;;1.20;;
10303;SDS011;5197;48.152;8.590;2023-04-01T23:24:59;2.60;;;1.40;;
10303;SDS011;5197;48.152;8.590;2023-04-01T23:27:29;2.13;;;1.33;;
10303;SDS011;5197;48.152;8.590;2023-04-01T23:30:03;2.80;;;1.60;;
10303;SDS011;5197;48.152;8.590;2023-04-01T23:32:30;1.30;;;1.20;;
10303;SDS011;5197;48.152;8.590;2023-04-01T23:34:58;1.73;;;1.43;;
10303;SDS011;5197;48.152;8.590;2023-04-01T23:37:26;1.30;;;1.20;;
10303;SDS011;5197;48.152;8.590;2023-04-01T23:39:54;1.20;;;1.07;;
10303;SDS011;5197;48.152;8.590;2023-04-01T23:42:33;2.87;;;1.30;;
10303;SDS011;5197;48.152;8.590;2023-04-01T23:45:16;2.03;;;1.47;;
10303;SDS011;5197;48.152;8.590;2023-04-01T23:47:46;1.80;;;1.40;;
10303;SDS011;5197;48.152;8.590;2023-04-01T23:50:17;1.50;;;1.40;;
10303;SDS011;5197;48.152;8.590;2023-04-01T23:53:33;1.60;;;1.50;;
10303;SDS011;5197;48.152;8.590;2023-04-01T23:55:44;1.40;;;1.30;;
